sensor_id;sensor_type;location;lat;lon;timestamp;P1;durP1;ratioP1;P2;durP2;ratioP2
29452;SDS011;16424;50.956;5.320;2022-08-19T00:01:49;22.80;;;20.40;;
29452;SDS011;16424;50.956;5.320;2022-08-19T00:04:17;22.92;;;20.13;;
29452;SDS011;16424;50.956;5.320;2022-08-19T00:06:45;23.48;;;21.08;;
29452;SDS011;16424;50.956;5.320;2022-08-19T00:09:12;22.10;;;19.90;;
29452;SDS011;16424;50.956;5.320;2022-08-19T00:11:42;23.70;;;21.33;;
29452;SDS011;16424;50.956;5.320;2022-08-19T00:14:09;23.55;;;19.90;;
29452;SDS011;16424;50.956;5.320;2022-08-19T00:16:39;26.02;;;21.35;;
29452;SDS011;16424;50.956;5.320;2022-08-19T00:19:06;21.58;;;19.27;;
29452;SDS011;16424;50.956;5.320;2022-08-19T00:21:32;26.23;;;22.08;;
29452;SDS011;16424;50.956;5.320;2022-08-19T00:24:03;24.02;;;21.50;;
29452;SDS011;16424;50.956;5.320;2022-08-19T00:26:29;22.80;;;20.50;;
29452;SDS011;16424;50.956;5.320;2022-08-19T00:28:54;23.42;;;20.92;;
29452;SDS011;16424;50.956;5.320;2022-08-19T00:31:21;26.05;;;23.15;;
29452;SDS011;16424;50.956;5.320;2022-08-19T00:33:47;26.15;;;22.33;;
29452;SDS011;16424;50.956;5.320;2022-08-19T00:36:14;27.50;;;22.70;;
29452;SDS011;16424;50.956;5.320;2022-08-19T00:38:40;28.25;;;21.92;;
29452;SDS011;16424;50.956;5.320;2022-08-19T00:41:12;32.47;;;23.23;;
29452;SDS011;16424;50.956;5.320;2022-08-19T00:43:39;27.40;;;23.00;;
29452;SDS011;16424;50.956;5.320;2022-08-19T00:46:06;27.30;;;24.20;;
29452;SDS011;16424;50.956;5.320;2022-08-19T00:48:32;27.77;;;24.77;;
29452;SDS011;16424;50.956;5.320;2022-08-19T00:50:58;28.10;;;23.52;;
29452;SDS011;16424;50.956;5.320;2022-08-19T00:53:26;30.63;;;25.20;;
29452;SDS011;16424;50.956;5.320;2022-08-19T00:55:54;31.13;;;26.08;;
29452;SDS011;16424;50.956;5.320;2022-08-19T00:58:25;30.55;;;25.50;;
29452;SDS011;16424;50.956;5.320;2022-08-19T01:00:54;31.30;;;26.02;;
29452;SDS011;16424;50.956;5.320;2022-08-19T01:03:20;31.73;;;26.80;;
29452;SDS011;16424;50.956;5.320;2022-08-19T01:05:47;36.40;;;26.02;;
29452;SDS011;16424;50.956;5.320;2022-08-19T01:08:16;33.00;;;26.55;;
29452;SDS011;16424;50.956;5.320;2022-08-19T01:10:45;38.05;;;28.25;;
29452;SDS011;16424;50.956;5.320;2022-08-19T01:13:14;35.58;;;27.83;;
29452;SDS011;16424;50.956;5.320;2022-08-19T01:15:50;38.42;;;30.02;;
29452;SDS011;16424;50.956;5.320;2022-08-19T01:18:20;37.70;;;30.20;;
29452;SDS011;16424;50.956;5.320;2022-08-19T01:20:47;46.15;;;30.65;;
29452;SDS011;16424;50.956;5.320;2022-08-19T01:23:12;35.67;;;29.10;;
29452;SDS011;16424;50.956;5.320;2022-08-19T01:25:49;40.90;;;31.02;;
29452;SDS011;16424;50.956;5.320;2022-08-19T01:28:25;37.55;;;29.38;;
29452;SDS011;16424;50.956;5.320;2022-08-19T01:30:52;36.60;;;28.95;;
29452;SDS011;16424;50.956;5.320;2022-08-19T01:33:19;36.08;;;30.00;;
29452;SDS011;16424;50.956;5.320;2022-08-19T01:35:45;36.17;;;28.38;;
29452;SDS011;16424;50.956;5.320;2022-08-19T01:38:19;39.40;;;27.23;;
29452;SDS011;16424;50.956;5.320;2022-08-19T01:40:50;43.63;;;27.50;;
29452;SDS011;16424;50.956;5.320;2022-08-19T01:43:16;31.77;;;25.40;;
29452;SDS011;16424;50.956;5.320;2022-08-19T01:45:44;34.08;;;26.73;;
29452;SDS011;16424;50.956;5.320;2022-08-19T01:48:11;35.50;;;26.05;;
29452;SDS011;16424;50.956;5.320;2022-08-19T01:50:37;31.83;;;25.83;;
29452;SDS011;16424;50.956;5.320;2022-08-19T01:53:03;30.63;;;25.17;;
29452;SDS011;16424;50.956;5.320;2022-08-19T01:55:31;37.58;;;27.80;;
29452;SDS011;16424;50.956;5.320;2022-08-19T01:57:57;36.53;;;26.70;;
29452;SDS011;16424;50.956;5.320;2022-08-19T02:00:27;41.70;;;28.63;;
29452;SDS011;16424;50.956;5.320;2022-08-19T02:02:54;42.13;;;30.27;;
29452;SDS011;16424;50.956;5.320;2022-08-19T02:05:20;40.42;;;28.42;;
29452;SDS011;16424;50.956;5.320;2022-08-19T02:07:46;33.83;;;27.13;;
29452;SDS011;16424;50.956;5.320;2022-08-19T02:10:14;41.05;;;28.38;;
29452;SDS011;16424;50.956;5.320;2022-08-19T02:12:42;35.90;;;27.45;;
29452;SDS011;16424;50.956;5.320;2022-08-19T02:15:09;44.08;;;29.50;;
29452;SDS011;16424;50.956;5.320;2022-08-19T02:17:35;39.00;;;29.52;;
29452;SDS011;16424;50.956;5.320;2022-08-19T02:20:00;40.65;;;29.55;;
29452;SDS011;16424;50.956;5.320;2022-08-19T02:22:26;37.30;;;28.40;;
29452;SDS011;16424;50.956;5.320;2022-08-19T02:24:53;40.00;;;29.38;;
29452;SDS011;16424;50.956;5.320;2022-08-19T02:27:19;46.35;;;31.20;;
29452;SDS011;16424;50.956;5.320;2022-08-19T02:29:46;46.92;;;31.85;;
29452;SDS011;16424;50.956;5.320;2022-08-19T02:32:12;44.10;;;29.20;;
29452;SDS011;16424;50.956;5.320;2022-08-19T02:34:38;39.88;;;29.58;;
29452;SDS011;16424;50.956;5.320;2022-08-19T02:37:05;44.85;;;31.15;;
29452;SDS011;16424;50.956;5.320;2022-08-19T02:39:30;45.08;;;30.33;;
29452;SDS011;16424;50.956;5.320;2022-08-19T02:41:56;43.75;;;30.15;;
29452;SDS011;16424;50.956;5.320;2022-08-19T02:44:24;46.53;;;30.70;;
29452;SDS011;16424;50.956;5.320;2022-08-19T02:46:50;49.47;;;30.38;;
29452;SDS011;16424;50.956;5.320;2022-08-19T02:49:15;49.75;;;33.00;;
29452;SDS011;16424;50.956;5.320;2022-08-19T02:51:42;43.88;;;31.02;;
29452;SDS011;16424;50.956;5.320;2022-08-19T02:54:09;53.58;;;33.42;;
29452;SDS011;16424;50.956;5.320;2022-08-19T02:56:37;50.72;;;31.77;;
29452;SDS011;16424;50.956;5.320;2022-08-19T02:59:05;53.15;;;33.75;;
29452;SDS011;16424;50.956;5.320;2022-08-19T03:01:33;53.13;;;32.85;;
29452;SDS011;16424;50.956;5.320;2022-08-19T03:04:02;58.58;;;34.60;;
29452;SDS011;16424;50.956;5.320;2022-08-19T03:06:29;58.35;;;36.40;;
29452;SDS011;16424;50.956;5.320;2022-08-19T03:08:56;63.03;;;38.85;;
29452;SDS011;16424;50.956;5.320;2022-08-19T03:11:23;60.92;;;37.78;;
29452;SDS011;16424;50.956;5.320;2022-08-19T03:13:49;60.90;;;38.70;;
29452;SDS011;16424;50.956;5.320;2022-08-19T03:16:16;57.13;;;36.42;;
29452;SDS011;16424;50.956;5.320;2022-08-19T03:18:45;56.67;;;34.78;;
29452;SDS011;16424;50.956;5.320;2022-08-19T03:21:15;59.40;;;36.30;;
29452;SDS011;16424;50.956;5.320;2022-08-19T03:23:42;54.40;;;35.05;;
29452;SDS011;16424;50.956;5.320;2022-08-19T03:26:08;51.35;;;34.40;;
29452;SDS011;16424;50.956;5.320;2022-08-19T03:28:33;62.00;;;34.67;;
29452;SDS011;16424;50.956;5.320;2022-08-19T03:31:00;56.15;;;34.72;;
29452;SDS011;16424;50.956;5.320;2022-08-19T03:33:30;60.70;;;35.75;;
29452;SDS011;16424;50.956;5.320;2022-08-19T03:36:18;57.35;;;36.97;;
29452;SDS011;16424;50.956;5.320;2022-08-19T03:38:46;63.45;;;38.47;;
29452;SDS011;16424;50.956;5.320;2022-08-19T03:41:16;67.45;;;38.45;;
29452;SDS011;16424;50.956;5.320;2022-08-19T03:43:48;63.50;;;37.63;;
29452;SDS011;16424;50.956;5.320;2022-08-19T03:46:19;62.45;;;36.90;;
29452;SDS011;16424;50.956;5.320;2022-08-19T03:48:49;71.93;;;39.97;;
29452;SDS011;16424;50.956;5.320;2022-08-19T03:51:23;59.08;;;37.60;;
29452;SDS011;16424;50.956;5.320;2022-08-19T03:53:52;62.40;;;36.20;;
29452;SDS011;16424;50.956;5.320;2022-08-19T03:56:18;62.13;;;38.00;;
29452;SDS011;16424;50.956;5.320;2022-08-19T03:58:44;66.70;;;38.38;;
29452;SDS011;16424;50.956;5.320;2022-08-19T04:01:12;62.97;;;38.92;;
29452;SDS011;16424;50.956;5.320;2022-08-19T04:03:39;62.75;;;37.70;;
29452;SDS011;16424;50.956;5.320;2022-08-19T04:06:10;67.57;;;38.30;;
29452;SDS011;16424;50.956;5.320;2022-08-19T04:08:41;74.80;;;39.25;;
29452;SDS011;16424;50.956;5.320;2022-08-19T04:11:11;79.32;;;41.05;;
29452;SDS011;16424;50.956;5.320;2022-08-19T04:13:39;80.07;;;40.95;;
29452;SDS011;16424;50.956;5.320;2022-08-19T04:16:06;75.25;;;40.58;;
29452;SDS011;16424;50.956;5.320;2022-08-19T04:18:35;72.40;;;37.88;;
29452;SDS011;16424;50.956;5.320;2022-08-19T04:21:02;78.38;;;39.53;;
29452;SDS011;16424;50.956;5.320;2022-08-19T04:23:29;83.07;;;39.60;;
29452;SDS011;16424;50.956;5.320;2022-08-19T04:25:55;72.10;;;39.75;;
29452;SDS011;16424;50.956;5.320;2022-08-19T04:28:21;73.30;;;39.50;;
29452;SDS011;16424;50.956;5.320;2022-08-19T04:30:49;82.90;;;41.08;;
29452;SDS011;16424;50.956;5.320;2022-08-19T04:33:17;84.00;;;42.22;;
29452;SDS011;16424;50.956;5.320;2022-08-19T04:35:45;91.35;;;45.38;;
29452;SDS011;16424;50.956;5.320;2022-08-19T04:38:13;90.53;;;43.03;;
29452;SDS011;16424;50.956;5.320;2022-08-19T04:40:40;92.60;;;47.97;;
29452;SDS011;16424;50.956;5.320;2022-08-19T04:43:29;92.90;;;44.90;;
29452;SDS011;16424;50.956;5.320;2022-08-19T04:45:55;97.07;;;46.92;;
29452;SDS011;16424;50.956;5.320;2022-08-19T04:48:21;96.07;;;44.63;;
29452;SDS011;16424;50.956;5.320;2022-08-19T04:50:54;90.18;;;45.50;;
29452;SDS011;16424;50.956;5.320;2022-08-19T04:53:25;88.55;;;45.60;;
29452;SDS011;16424;50.956;5.320;2022-08-19T04:55:56;93.43;;;45.83;;
29452;SDS011;16424;50.956;5.320;2022-08-19T04:58:23;90.10;;;45.80;;
29452;SDS011;16424;50.956;5.320;2022-08-19T05:00:50;88.10;;;44.25;;
29452;SDS011;16424;50.956;5.320;2022-08-19T05:03:16;91.30;;;46.85;;
29452;SDS011;16424;50.956;5.320;2022-08-19T05:05:43;88.57;;;43.58;;
29452;SDS011;16424;50.956;5.320;2022-08-19T05:08:10;82.57;;;44.88;;
29452;SDS011;16424;50.956;5.320;2022-08-19T05:10:43;82.60;;;44.72;;
29452;SDS011;16424;50.956;5.320;2022-08-19T05:13:09;84.80;;;44.72;;
29452;SDS011;16424;50.956;5.320;2022-08-19T05:15:35;71.32;;;40.40;;
29452;SDS011;16424;50.956;5.320;2022-08-19T05:18:01;71.25;;;38.03;;
29452;SDS011;16424;50.956;5.320;2022-08-19T05:20:45;65.95;;;37.10;;
29452;SDS011;16424;50.956;5.320;2022-08-19T05:23:29;67.07;;;38.90;;
29452;SDS011;16424;50.956;5.320;2022-08-19T05:25:55;70.57;;;39.33;;
29452;SDS011;16424;50.956;5.320;2022-08-19T05:28:20;63.05;;;36.75;;
29452;SDS011;16424;50.956;5.320;2022-08-19T05:30:46;73.28;;;39.78;;
29452;SDS011;16424;50.956;5.320;2022-08-19T05:33:13;68.40;;;39.58;;
29452;SDS011;16424;50.956;5.320;2022-08-19T05:35:39;64.63;;;40.58;;
29452;SDS011;16424;50.956;5.320;2022-08-19T05:38:06;61.17;;;39.72;;
29452;SDS011;16424;50.956;5.320;2022-08-19T05:40:36;63.83;;;38.08;;
29452;SDS011;16424;50.956;5.320;2022-08-19T05:43:04;59.92;;;37.75;;
29452;SDS011;16424;50.956;5.320;2022-08-19T05:45:32;61.72;;;37.60;;
29452;SDS011;16424;50.956;5.320;2022-08-19T05:48:03;55.47;;;35.50;;
29452;SDS011;16424;50.956;5.320;2022-08-19T05:50:28;57.45;;;36.88;;
29452;SDS011;16424;50.956;5.320;2022-08-19T05:52:55;57.40;;;37.17;;
29452;SDS011;16424;50.956;5.320;2022-08-19T05:55:20;58.15;;;36.17;;
29452;SDS011;16424;50.956;5.320;2022-08-19T05:57:47;56.58;;;35.38;;
29452;SDS011;16424;50.956;5.320;2022-08-19T06:00:13;55.13;;;35.17;;
29452;SDS011;16424;50.956;5.320;2022-08-19T06:02:39;47.42;;;33.78;;
29452;SDS011;16424;50.956;5.320;2022-08-19T06:05:05;60.42;;;34.40;;
29452;SDS011;16424;50.956;5.320;2022-08-19T06:07:38;51.80;;;32.85;;
29452;SDS011;16424;50.956;5.320;2022-08-19T06:10:05;50.08;;;32.70;;
29452;SDS011;16424;50.956;5.320;2022-08-19T06:12:33;49.42;;;30.42;;
29452;SDS011;16424;50.956;5.320;2022-08-19T06:15:04;43.72;;;31.80;;
29452;SDS011;16424;50.956;5.320;2022-08-19T06:17:32;41.75;;;29.45;;
29452;SDS011;16424;50.956;5.320;2022-08-19T06:19:59;41.60;;;28.63;;
29452;SDS011;16424;50.956;5.320;2022-08-19T06:22:25;37.17;;;27.63;;
29452;SDS011;16424;50.956;5.320;2022-08-19T06:24:51;38.85;;;28.15;;
29452;SDS011;16424;50.956;5.320;2022-08-19T06:27:19;38.00;;;27.20;;
29452;SDS011;16424;50.956;5.320;2022-08-19T06:29:45;39.83;;;27.33;;
29452;SDS011;16424;50.956;5.320;2022-08-19T06:32:11;34.30;;;23.58;;
29452;SDS011;16424;50.956;5.320;2022-08-19T06:34:39;35.17;;;25.85;;
29452;SDS011;16424;50.956;5.320;2022-08-19T06:37:06;33.50;;;24.30;;
29452;SDS011;16424;50.956;5.320;2022-08-19T06:39:33;34.47;;;25.52;;
29452;SDS011;16424;50.956;5.320;2022-08-19T06:42:02;33.70;;;23.08;;
29452;SDS011;16424;50.956;5.320;2022-08-19T06:44:32;31.45;;;21.85;;
29452;SDS011;16424;50.956;5.320;2022-08-19T06:47:02;30.77;;;21.45;;
29452;SDS011;16424;50.956;5.320;2022-08-19T06:49:30;28.63;;;21.38;;
29452;SDS011;16424;50.956;5.320;2022-08-19T06:51:56;31.38;;;20.20;;
29452;SDS011;16424;50.956;5.320;2022-08-19T06:54:23;24.13;;;18.90;;
29452;SDS011;16424;50.956;5.320;2022-08-19T06:56:49;24.92;;;19.42;;
29452;SDS011;16424;50.956;5.320;2022-08-19T06:59:16;27.08;;;18.75;;
29452;SDS011;16424;50.956;5.320;2022-08-19T07:01:45;26.13;;;18.25;;
29452;SDS011;16424;50.956;5.320;2022-08-19T07:04:13;24.70;;;17.20;;
29452;SDS011;16424;50.956;5.320;2022-08-19T07:06:40;23.45;;;16.63;;
29452;SDS011;16424;50.956;5.320;2022-08-19T07:09:07;22.50;;;17.70;;
29452;SDS011;16424;50.956;5.320;2022-08-19T07:11:33;22.40;;;14.65;;
29452;SDS011;16424;50.956;5.320;2022-08-19T07:14:00;19.88;;;14.77;;
29452;SDS011;16424;50.956;5.320;2022-08-19T07:16:26;24.90;;;14.07;;
29452;SDS011;16424;50.956;5.320;2022-08-19T07:18:52;25.25;;;15.80;;
29452;SDS011;16424;50.956;5.320;2022-08-19T07:21:20;20.17;;;15.10;;
29452;SDS011;16424;50.956;5.320;2022-08-19T07:23:49;20.98;;;15.02;;
29452;SDS011;16424;50.956;5.320;2022-08-19T07:26:17;20.25;;;14.40;;
29452;SDS011;16424;50.956;5.320;2022-08-19T07:28:46;23.40;;;15.20;;
29452;SDS011;16424;50.956;5.320;2022-08-19T07:31:13;24.80;;;14.38;;
29452;SDS011;16424;50.956;5.320;2022-08-19T07:33:43;22.65;;;15.95;;
29452;SDS011;16424;50.956;5.320;2022-08-19T07:36:09;20.70;;;14.25;;
29452;SDS011;16424;50.956;5.320;2022-08-19T07:38:38;21.05;;;14.23;;
29452;SDS011;16424;50.956;5.320;2022-08-19T07:41:12;23.20;;;13.43;;
29452;SDS011;16424;50.956;5.320;2022-08-19T07:43:42;17.92;;;12.68;;
29452;SDS011;16424;50.956;5.320;2022-08-19T07:46:08;20.52;;;13.15;;
29452;SDS011;16424;50.956;5.320;2022-08-19T07:48:35;21.15;;;13.35;;
29452;SDS011;16424;50.956;5.320;2022-08-19T07:51:02;20.95;;;13.55;;
29452;SDS011;16424;50.956;5.320;2022-08-19T07:53:30;21.20;;;13.65;;
29452;SDS011;16424;50.956;5.320;2022-08-19T07:55:58;25.00;;;14.50;;
29452;SDS011;16424;50.956;5.320;2022-08-19T07:58:29;25.17;;;13.82;;
29452;SDS011;16424;50.956;5.320;2022-08-19T08:00:57;19.25;;;13.43;;
29452;SDS011;16424;50.956;5.320;2022-08-19T08:03:23;25.05;;;13.25;;
29452;SDS011;16424;50.956;5.320;2022-08-19T08:06:10;22.67;;;14.18;;
29452;SDS011;16424;50.956;5.320;2022-08-19T08:08:55;24.67;;;13.68;;
29452;SDS011;16424;50.956;5.320;2022-08-19T08:11:36;21.90;;;13.27;;
29452;SDS011;16424;50.956;5.320;2022-08-19T08:14:03;24.17;;;13.32;;
29452;SDS011;16424;50.956;5.320;2022-08-19T08:16:29;20.83;;;13.68;;
29452;SDS011;16424;50.956;5.320;2022-08-19T08:18:58;21.67;;;13.60;;
29452;SDS011;16424;50.956;5.320;2022-08-19T08:21:25;20.80;;;12.05;;
29452;SDS011;16424;50.956;5.320;2022-08-19T08:23:50;21.70;;;12.68;;
29452;SDS011;16424;50.956;5.320;2022-08-19T08:26:20;18.48;;;11.38;;
29452;SDS011;16424;50.956;5.320;2022-08-19T08:28:45;22.13;;;12.77;;
29452;SDS011;16424;50.956;5.320;2022-08-19T08:31:13;15.45;;;11.32;;
29452;SDS011;16424;50.956;5.320;2022-08-19T08:33:39;20.80;;;12.38;;
29452;SDS011;16424;50.956;5.320;2022-08-19T08:36:07;14.95;;;11.63;;
29452;SDS011;16424;50.956;5.320;2022-08-19T08:38:33;14.77;;;10.80;;
29452;SDS011;16424;50.956;5.320;2022-08-19T08:41:02;14.10;;;9.82;;
29452;SDS011;16424;50.956;5.320;2022-08-19T08:43:35;17.20;;;10.43;;
29452;SDS011;16424;50.956;5.320;2022-08-19T08:46:23;16.10;;;9.90;;
29452;SDS011;16424;50.956;5.320;2022-08-19T08:54:49;11.05;;;7.60;;
29452;SDS011;16424;50.956;5.320;2022-08-19T08:57:21;14.02;;;8.52;;
29452;SDS011;16424;50.956;5.320;2022-08-19T08:59:55;14.20;;;7.97;;
29452;SDS011;16424;50.956;5.320;2022-08-19T09:02:22;10.52;;;6.20;;
29452;SDS011;16424;50.956;5.320;2022-08-19T09:04:48;9.38;;;7.35;;
29452;SDS011;16424;50.956;5.320;2022-08-19T09:10:49;11.30;;;6.82;;
29452;SDS011;16424;50.956;5.320;2022-08-19T09:18:46;8.85;;;6.82;;
29452;SDS011;16424;50.956;5.320;2022-08-19T09:21:16;10.82;;;7.60;;
29452;SDS011;16424;50.956;5.320;2022-08-19T09:23:42;12.50;;;6.78;;
29452;SDS011;16424;50.956;5.320;2022-08-19T09:26:09;13.38;;;7.18;;
29452;SDS011;16424;50.956;5.320;2022-08-19T09:28:38;12.20;;;5.93;;
29452;SDS011;16424;50.956;5.320;2022-08-19T09:31:12;11.82;;;6.47;;
29452;SDS011;16424;50.956;5.320;2022-08-19T09:33:39;10.32;;;5.93;;
29452;SDS011;16424;50.956;5.320;2022-08-19T09:36:06;14.57;;;5.82;;
29452;SDS011;16424;50.956;5.320;2022-08-19T09:38:35;12.38;;;6.68;;
29452;SDS011;16424;50.956;5.320;2022-08-19T09:41:05;8.73;;;5.20;;
29452;SDS011;16424;50.956;5.320;2022-08-19T09:43:32;10.40;;;5.70;;
29452;SDS011;16424;50.956;5.320;2022-08-19T09:46:01;8.38;;;4.80;;
29452;SDS011;16424;50.956;5.320;2022-08-19T09:48:30;12.00;;;4.38;;
29452;SDS011;16424;50.956;5.320;2022-08-19T09:51:02;6.40;;;5.00;;
29452;SDS011;16424;50.956;5.320;2022-08-19T09:53:33;6.20;;;3.75;;
29452;SDS011;16424;50.956;5.320;2022-08-19T09:56:03;7.78;;;4.03;;
29452;SDS011;16424;50.956;5.320;2022-08-19T09:58:29;5.45;;;4.20;;
29452;SDS011;16424;50.956;5.320;2022-08-19T10:00:56;6.72;;;3.60;;
29452;SDS011;16424;50.956;5.320;2022-08-19T10:03:23;9.05;;;4.47;;
29452;SDS011;16424;50.956;5.320;2022-08-19T10:05:49;6.55;;;3.30;;
29452;SDS011;16424;50.956;5.320;2022-08-19T10:08:19;6.40;;;3.42;;
29452;SDS011;16424;50.956;5.320;2022-08-19T10:10:48;7.32;;;4.10;;
29452;SDS011;16424;50.956;5.320;2022-08-19T10:13:16;6.30;;;3.10;;
29452;SDS011;16424;50.956;5.320;2022-08-19T10:15:45;12.38;;;3.95;;
29452;SDS011;16424;50.956;5.320;2022-08-19T10:18:10;7.28;;;3.28;;
29452;SDS011;16424;50.956;5.320;2022-08-19T10:20:37;4.47;;;2.60;;
29452;SDS011;16424;50.956;5.320;2022-08-19T10:23:02;4.82;;;2.95;;
29452;SDS011;16424;50.956;5.320;2022-08-19T10:25:28;6.35;;;3.05;;
29452;SDS011;16424;50.956;5.320;2022-08-19T10:27:54;10.25;;;3.67;;
29452;SDS011;16424;50.956;5.320;2022-08-19T10:30:20;8.70;;;3.53;;
29452;SDS011;16424;50.956;5.320;2022-08-19T10:32:46;6.63;;;3.05;;
29452;SDS011;16424;50.956;5.320;2022-08-19T10:35:12;8.93;;;3.90;;
29452;SDS011;16424;50.956;5.320;2022-08-19T10:37:39;7.20;;;3.40;;
29452;SDS011;16424;50.956;5.320;2022-08-19T10:40:05;8.70;;;3.58;;
29452;SDS011;16424;50.956;5.320;2022-08-19T10:42:33;7.43;;;4.55;;
29452;SDS011;16424;50.956;5.320;2022-08-19T10:45:02;9.35;;;3.72;;
29452;SDS011;16424;50.956;5.320;2022-08-19T10:47:30;6.55;;;3.60;;
29452;SDS011;16424;50.956;5.320;2022-08-19T10:49:56;6.53;;;3.33;;
29452;SDS011;16424;50.956;5.320;2022-08-19T10:52:41;9.07;;;3.33;;
29452;SDS011;16424;50.956;5.320;2022-08-19T10:55:10;6.07;;;2.63;;
29452;SDS011;16424;50.956;5.320;2022-08-19T10:57:54;6.03;;;2.92;;
29452;SDS011;16424;50.956;5.320;2022-08-19T11:00:22;6.82;;;2.88;;
29452;SDS011;16424;50.956;5.320;2022-08-19T11:02:48;3.72;;;2.53;;
29452;SDS011;16424;50.956;5.320;2022-08-19T11:05:14;3.90;;;2.42;;
29452;SDS011;16424;50.956;5.320;2022-08-19T11:07:42;6.32;;;2.83;;
29452;SDS011;16424;50.956;5.320;2022-08-19T11:10:10;7.32;;;3.10;;
29452;SDS011;16424;50.956;5.320;2022-08-19T11:12:38;9.63;;;3.05;;
29452;SDS011;16424;50.956;5.320;2022-08-19T11:15:05;5.38;;;3.03;;
29452;SDS011;16424;50.956;5.320;2022-08-19T11:17:33;3.35;;;2.80;;
29452;SDS011;16424;50.956;5.320;2022-08-19T11:19:58;4.63;;;2.85;;
29452;SDS011;16424;50.956;5.320;2022-08-19T11:22:28;6.03;;;2.90;;
29452;SDS011;16424;50.956;5.320;2022-08-19T11:24:53;5.63;;;2.60;;
29452;SDS011;16424;50.956;5.320;2022-08-19T11:27:20;7.15;;;3.00;;
29452;SDS011;16424;50.956;5.320;2022-08-19T11:29:46;5.22;;;2.58;;
29452;SDS011;16424;50.956;5.320;2022-08-19T11:32:11;7.80;;;3.22;;
29452;SDS011;16424;50.956;5.320;2022-08-19T11:34:38;6.10;;;3.40;;
29452;SDS011;16424;50.956;5.320;2022-08-19T11:37:04;5.82;;;2.88;;
29452;SDS011;16424;50.956;5.320;2022-08-19T11:39:32;6.00;;;2.70;;
29452;SDS011;16424;50.956;5.320;2022-08-19T11:41:59;6.55;;;2.55;;
29452;SDS011;16424;50.956;5.320;2022-08-19T11:44:27;5.03;;;3.08;;
29452;SDS011;16424;50.956;5.320;2022-08-19T11:46:55;4.50;;;2.47;;
29452;SDS011;16424;50.956;5.320;2022-08-19T11:49:21;6.70;;;3.00;;
29452;SDS011;16424;50.956;5.320;2022-08-19T11:51:46;5.85;;;2.80;;
29452;SDS011;16424;50.956;5.320;2022-08-19T11:54:15;5.82;;;3.20;;
29452;SDS011;16424;50.956;5.320;2022-08-19T11:56:41;7.82;;;3.00;;
29452;SDS011;16424;50.956;5.320;2022-08-19T11:59:07;6.70;;;2.50;;
29452;SDS011;16424;50.956;5.320;2022-08-19T12:01:33;8.23;;;2.72;;
29452;SDS011;16424;50.956;5.320;2022-08-19T12:03:59;3.90;;;2.92;;
29452;SDS011;16424;50.956;5.320;2022-08-19T12:06:28;5.30;;;2.72;;
29452;SDS011;16424;50.956;5.320;2022-08-19T12:08:56;8.77;;;3.05;;
29452;SDS011;16424;50.956;5.320;2022-08-19T12:11:23;4.65;;;2.72;;
29452;SDS011;16424;50.956;5.320;2022-08-19T12:13:50;8.38;;;2.40;;
29452;SDS011;16424;50.956;5.320;2022-08-19T12:16:20;5.20;;;2.60;;
29452;SDS011;16424;50.956;5.320;2022-08-19T12:18:48;5.43;;;2.60;;
29452;SDS011;16424;50.956;5.320;2022-08-19T12:21:16;5.20;;;2.10;;
29452;SDS011;16424;50.956;5.320;2022-08-19T12:23:46;3.42;;;2.15;;
29452;SDS011;16424;50.956;5.320;2022-08-19T12:26:13;8.07;;;3.10;;
29452;SDS011;16424;50.956;5.320;2022-08-19T12:28:39;2.95;;;1.88;;
29452;SDS011;16424;50.956;5.320;2022-08-19T12:31:06;3.47;;;2.53;;
29452;SDS011;16424;50.956;5.320;2022-08-19T12:33:32;6.70;;;2.50;;
29452;SDS011;16424;50.956;5.320;2022-08-19T12:36:03;6.32;;;2.78;;
29452;SDS011;16424;50.956;5.320;2022-08-19T12:38:30;5.25;;;3.03;;
29452;SDS011;16424;50.956;5.320;2022-08-19T12:40:57;5.10;;;2.78;;
29452;SDS011;16424;50.956;5.320;2022-08-19T12:43:23;5.28;;;2.72;;
29452;SDS011;16424;50.956;5.320;2022-08-19T12:45:49;5.90;;;2.40;;
29452;SDS011;16424;50.956;5.320;2022-08-19T12:48:15;5.45;;;2.78;;
29452;SDS011;16424;50.956;5.320;2022-08-19T12:50:42;3.72;;;2.40;;
29452;SDS011;16424;50.956;5.320;2022-08-19T12:53:12;8.93;;;2.60;;
29452;SDS011;16424;50.956;5.320;2022-08-19T12:55:38;5.47;;;2.03;;
29452;SDS011;16424;50.956;5.320;2022-08-19T12:58:04;8.45;;;2.72;;
29452;SDS011;16424;50.956;5.320;2022-08-19T13:00:30;3.10;;;2.10;;
29452;SDS011;16424;50.956;5.320;2022-08-19T13:02:57;6.50;;;2.53;;
29452;SDS011;16424;50.956;5.320;2022-08-19T13:05:25;5.45;;;2.30;;
29452;SDS011;16424;50.956;5.320;2022-08-19T13:07:54;6.95;;;2.67;;
29452;SDS011;16424;50.956;5.320;2022-08-19T13:10:21;6.45;;;2.53;;
29452;SDS011;16424;50.956;5.320;2022-08-19T13:12:50;4.10;;;2.33;;
29452;SDS011;16424;50.956;5.320;2022-08-19T13:15:17;10.38;;;2.30;;
29452;SDS011;16424;50.956;5.320;2022-08-19T13:17:47;3.67;;;2.42;;
29452;SDS011;16424;50.956;5.320;2022-08-19T13:20:15;6.32;;;2.15;;
29452;SDS011;16424;50.956;5.320;2022-08-19T13:22:43;3.28;;;2.20;;
29452;SDS011;16424;50.956;5.320;2022-08-19T13:25:10;9.02;;;2.78;;
29452;SDS011;16424;50.956;5.320;2022-08-19T13:27:37;4.47;;;2.30;;
29452;SDS011;16424;50.956;5.320;2022-08-19T13:30:04;5.38;;;2.10;;
29452;SDS011;16424;50.956;5.320;2022-08-19T13:32:49;3.00;;;1.65;;
29452;SDS011;16424;50.956;5.320;2022-08-19T13:35:33;2.97;;;1.87;;
29452;SDS011;16424;50.956;5.320;2022-08-19T13:37:59;4.43;;;1.80;;
29452;SDS011;16424;50.956;5.320;2022-08-19T13:40:25;3.70;;;2.05;;
29452;SDS011;16424;50.956;5.320;2022-08-19T13:42:52;5.45;;;1.67;;
29452;SDS011;16424;50.956;5.320;2022-08-19T13:45:20;5.13;;;1.60;;
29452;SDS011;16424;50.956;5.320;2022-08-19T13:47:49;3.80;;;1.75;;
29452;SDS011;16424;50.956;5.320;2022-08-19T13:50:18;7.10;;;1.95;;
29452;SDS011;16424;50.956;5.320;2022-08-19T13:52:46;5.82;;;2.10;;
29452;SDS011;16424;50.956;5.320;2022-08-19T13:55:12;5.47;;;1.92;;
29452;SDS011;16424;50.956;5.320;2022-08-19T13:57:39;3.13;;;1.80;;
29452;SDS011;16424;50.956;5.320;2022-08-19T14:00:06;2.15;;;1.92;;
29452;SDS011;16424;50.956;5.320;2022-08-19T14:02:36;3.58;;;1.70;;
29452;SDS011;16424;50.956;5.320;2022-08-19T14:05:03;4.18;;;2.25;;
29452;SDS011;16424;50.956;5.320;2022-08-19T14:07:30;3.55;;;2.28;;
29452;SDS011;16424;50.956;5.320;2022-08-19T14:09:56;3.47;;;1.85;;
29452;SDS011;16424;50.956;5.320;2022-08-19T14:12:22;2.78;;;2.05;;
29452;SDS011;16424;50.956;5.320;2022-08-19T14:14:48;4.15;;;2.53;;
29452;SDS011;16424;50.956;5.320;2022-08-19T14:17:14;2.10;;;1.88;;
29452;SDS011;16424;50.956;5.320;2022-08-19T14:19:40;7.47;;;1.65;;
29452;SDS011;16424;50.956;5.320;2022-08-19T14:22:06;4.43;;;1.80;;
29452;SDS011;16424;50.956;5.320;2022-08-19T14:24:32;2.83;;;1.80;;
29452;SDS011;16424;50.956;5.320;2022-08-19T14:26:58;4.32;;;1.90;;
29452;SDS011;16424;50.956;5.320;2022-08-19T14:29:24;4.03;;;1.98;;
29452;SDS011;16424;50.956;5.320;2022-08-19T14:31:49;4.22;;;2.30;;
29452;SDS011;16424;50.956;5.320;2022-08-19T14:34:15;4.32;;;1.80;;
29452;SDS011;16424;50.956;5.320;2022-08-19T14:36:41;3.75;;;1.98;;
29452;SDS011;16424;50.956;5.320;2022-08-19T14:39:07;3.08;;;2.20;;
29452;SDS011;16424;50.956;5.320;2022-08-19T14:41:34;4.15;;;2.15;;
29452;SDS011;16424;50.956;5.320;2022-08-19T14:44:00;2.80;;;2.33;;
29452;SDS011;16424;50.956;5.320;2022-08-19T14:46:26;3.17;;;2.00;;
29452;SDS011;16424;50.956;5.320;2022-08-19T14:48:54;4.57;;;1.90;;
29452;SDS011;16424;50.956;5.320;2022-08-19T14:51:21;7.10;;;1.80;;